sensor_id;sensor_type;location;lat;lon;timestamp;temperature;humidity
32217;DHT22;67098;51.140;4.088;2024-03-02T00:02:13;10.00;99.90
32217;DHT22;67098;51.140;4.088;2024-03-02T00:04:39;9.90;99.90
32217;DHT22;67098;51.140;4.088;2024-03-02T00:07:06;10.00;99.90
32217;DHT22;67098;51.140;4.088;2024-03-02T00:09:32;10.00;99.90
32217;DHT22;67098;51.140;4.088;2024-03-02T00:12:00;10.00;99.90
32217;DHT22;67098;51.140;4.088;2024-03-02T00:14:29;10.00;99.90
32217;DHT22;67098;51.140;4.088;2024-03-02T00:16:55;10.00;99.90
32217;DHT22;67098;51.140;4.088;2024-03-02T00:19:21;9.90;99.90
32217;DHT22;67098;51.140;4.088;2024-03-02T00:21:47;9.90;99.90
32217;DHT22;67098;51.140;4.088;2024-03-02T00:24:33;9.90;99.90
32217;DHT22;67098;51.140;4.088;2024-03-02T00:27:00;9.90;99.90
32217;DHT22;67098;51.140;4.088;2024-03-02T00:29:26;10.00;99.90
32217;DHT22;67098;51.140;4.088;2024-03-02T00:31:52;9.90;99.90
32217;DHT22;67098;51.140;4.088;2024-03-02T00:34:19;9.80;99.90
32217;DHT22;67098;51.140;4.088;2024-03-02T00:36:45;9.90;99.90
32217;DHT22;67098;51.140;4.088;2024-03-02T00:39:12;9.90;99.90
32217;DHT22;67098;51.140;4.088;2024-03-02T00:41:41;9.90;99.90
32217;DHT22;67098;51.140;4.088;2024-03-02T00:44:12;9.80;99.90
32217;DHT22;67098;51.140;4.088;2024-03-02T00:46:39;9.80;99.90
32217;DHT22;67098;51.140;4.088;2024-03-02T00:51:46;9.80;99.90
32217;DHT22;67098;51.140;4.088;2024-03-02T00:54:14;9.70;99.90
32217;DHT22;67098;51.140;4.088;2024-03-02T00:56:41;9.60;99.90
32217;DHT22;67098;51.140;4.088;2024-03-02T00:59:07;9.60;99.90
32217;DHT22;67098;51.140;4.088;2024-03-02T01:01:34;9.70;99.90
32217;DHT22;67098;51.140;4.088;2024-03-02T01:04:00;9.70;99.90
32217;DHT22;67098;51.140;4.088;2024-03-02T01:06:26;9.80;99.90
32217;DHT22;67098;51.140;4.088;2024-03-02T01:08:51;9.70;99.90
32217;DHT22;67098;51.140;4.088;2024-03-02T01:11:18;9.70;99.90
32217;DHT22;67098;51.140;4.088;2024-03-02T01:13:45;9.70;99.90
32217;DHT22;67098;51.140;4.088;2024-03-02T01:16:11;9.60;99.90
32217;DHT22;67098;51.140;4.088;2024-03-02T01:18:37;9.70;99.90
32217;DHT22;67098;51.140;4.088;2024-03-02T01:21:03;9.70;99.90
32217;DHT22;67098;51.140;4.088;2024-03-02T01:23:29;9.70;99.90
32217;DHT22;67098;51.140;4.088;2024-03-02T01:25:54;9.80;99.90
32217;DHT22;67098;51.140;4.088;2024-03-02T01:28:21;9.80;99.90
32217;DHT22;67098;51.140;4.088;2024-03-02T01:30:47;9.80;99.90
32217;DHT22;67098;51.140;4.088;2024-03-02T01:33:13;9.70;99.90
32217;DHT22;67098;51.140;4.088;2024-03-02T01:35:39;9.70;99.90
32217;DHT22;67098;51.140;4.088;2024-03-02T01:38:05;9.70;99.90
32217;DHT22;67098;51.140;4.088;2024-03-02T01:40:36;9.80;99.90
32217;DHT22;67098;51.140;4.088;2024-03-02T01:43:04;9.80;99.90
32217;DHT22;67098;51.140;4.088;2024-03-02T01:45:29;9.80;99.90
32217;DHT22;67098;51.140;4.088;2024-03-02T01:47:55;9.70;99.90
32217;DHT22;67098;51.140;4.088;2024-03-02T01:50:26;9.70;99.90
32217;DHT22;67098;51.140;4.088;2024-03-02T01:52:52;9.70;99.90
32217;DHT22;67098;51.140;4.088;2024-03-02T01:55:19;9.80;99.90
32217;DHT22;67098;51.140;4.088;2024-03-02T01:57:45;9.70;99.90
32217;DHT22;67098;51.140;4.088;2024-03-02T02:00:11;9.80;99.90
32217;DHT22;67098;51.140;4.088;2024-03-02T02:02:37;9.70;99.90
32217;DHT22;67098;51.140;4.088;2024-03-02T02:05:03;9.80;99.90
32217;DHT22;67098;51.140;4.088;2024-03-02T02:07:29;9.70;99.90
32217;DHT22;67098;51.140;4.088;2024-03-02T02:09:55;9.70;99.90
32217;DHT22;67098;51.140;4.088;2024-03-02T02:12:21;9.70;99.90
32217;DHT22;67098;51.140;4.088;2024-03-02T02:14:48;9.70;99.90
32217;DHT22;67098;51.140;4.088;2024-03-02T02:17:16;9.50;99.90
32217;DHT22;67098;51.140;4.088;2024-03-02T02:19:42;9.40;99.90
32217;DHT22;67098;51.140;4.088;2024-03-02T02:22:09;9.50;99.90
32217;DHT22;67098;51.140;4.088;2024-03-02T02:24:35;9.50;99.90
32217;DHT22;67098;51.140;4.088;2024-03-02T02:27:01;9.50;99.90
32217;DHT22;67098;51.140;4.088;2024-03-02T02:29:26;9.50;99.90
32217;DHT22;67098;51.140;4.088;2024-03-02T02:31:52;9.40;99.90
32217;DHT22;67098;51.140;4.088;2024-03-02T02:34:18;9.40;99.90
32217;DHT22;67098;51.140;4.088;2024-03-02T02:36:44;9.30;99.90
32217;DHT22;67098;51.140;4.088;2024-03-02T02:39:15;9.30;99.90
32217;DHT22;67098;51.140;4.088;2024-03-02T02:41:43;9.30;99.90
32217;DHT22;67098;51.140;4.088;2024-03-02T02:44:08;9.10;99.90
32217;DHT22;67098;51.140;4.088;2024-03-02T02:46:37;9.10;99.90
32217;DHT22;67098;51.140;4.088;2024-03-02T02:49:03;9.10;99.90
32217;DHT22;67098;51.140;4.088;2024-03-02T02:51:29;9.20;99.90
32217;DHT22;67098;51.140;4.088;2024-03-02T02:53:55;9.20;99.90
32217;DHT22;67098;51.140;4.088;2024-03-02T02:56:21;9.10;99.90
32217;DHT22;67098;51.140;4.088;2024-03-02T02:58:47;9.10;99.90
32217;DHT22;67098;51.140;4.088;2024-03-02T03:01:12;9.00;99.90
32217;DHT22;67098;51.140;4.088;2024-03-02T03:03:38;9.00;99.90
32217;DHT22;67098;51.140;4.088;2024-03-02T03:06:04;9.00;99.90
32217;DHT22;67098;51.140;4.088;2024-03-02T03:08:30;9.10;99.90
32217;DHT22;67098;51.140;4.088;2024-03-02T03:10:56;9.20;99.90
32217;DHT22;67098;51.140;4.088;2024-03-02T03:13:21;9.10;99.90
32217;DHT22;67098;51.140;4.088;2024-03-02T03:15:47;9.20;99.90
32217;DHT22;67098;51.140;4.088;2024-03-02T03:18:13;9.20;99.90
32217;DHT22;67098;51.140;4.088;2024-03-02T03:20:39;9.30;99.90
32217;DHT22;67098;51.140;4.088;2024-03-02T03:23:04;9.30;99.90
32217;DHT22;67098;51.140;4.088;2024-03-02T03:25:30;9.30;99.90
32217;DHT22;67098;51.140;4.088;2024-03-02T03:27:56;9.40;99.90
32217;DHT22;67098;51.140;4.088;2024-03-02T03:30:22;9.40;99.90
32217;DHT22;67098;51.140;4.088;2024-03-02T03:32:48;9.40;99.90
32217;DHT22;67098;51.140;4.088;2024-03-02T03:35:14;9.40;99.90
32217;DHT22;67098;51.140;4.088;2024-03-02T03:37:44;9.40;99.90
32217;DHT22;67098;51.140;4.088;2024-03-02T03:40:10;9.40;99.90
32217;DHT22;67098;51.140;4.088;2024-03-02T03:42:36;9.40;99.90
32217;DHT22;67098;51.140;4.088;2024-03-02T03:45:03;9.40;99.90
32217;DHT22;67098;51.140;4.088;2024-03-02T03:47:29;9.40;99.90
32217;DHT22;67098;51.140;4.088;2024-03-02T03:49:56;9.30;99.90
32217;DHT22;67098;51.140;4.088;2024-03-02T03:52:22;9.30;99.90
32217;DHT22;67098;51.140;4.088;2024-03-02T03:54:47;9.40;99.90
32217;DHT22;67098;51.140;4.088;2024-03-02T03:57:13;9.30;99.90
32217;DHT22;67098;51.140;4.088;2024-03-02T03:59:39;9.20;99.90
32217;DHT22;67098;51.140;4.088;2024-03-02T04:02:04;9.20;99.90
32217;DHT22;67098;51.140;4.088;2024-03-02T04:04:30;9.20;99.90
32217;DHT22;67098;51.140;4.088;2024-03-02T04:06:56;9.30;99.90
32217;DHT22;67098;51.140;4.088;2024-03-02T04:09:22;9.30;99.90
32217;DHT22;67098;51.140;4.088;2024-03-02T04:11:47;9.20;99.90
32217;DHT22;67098;51.140;4.088;2024-03-02T04:14:13;9.20;99.90
32217;DHT22;67098;51.140;4.088;2024-03-02T04:16:39;9.20;99.90
32217;DHT22;67098;51.140;4.088;2024-03-02T04:19:05;9.20;99.90
32217;DHT22;67098;51.140;4.088;2024-03-02T04:21:31;9.20;99.90
32217;DHT22;67098;51.140;4.088;2024-03-02T04:23:56;9.30;99.90
32217;DHT22;67098;51.140;4.088;2024-03-02T04:26:26;9.40;99.90
32217;DHT22;67098;51.140;4.088;2024-03-02T04:28:52;9.30;99.90
32217;DHT22;67098;51.140;4.088;2024-03-02T04:31:18;9.30;99.90
32217;DHT22;67098;51.140;4.088;2024-03-02T04:33:44;9.30;99.90
32217;DHT22;67098;51.140;4.088;2024-03-02T04:36:10;9.30;99.90
32217;DHT22;67098;51.140;4.088;2024-03-02T04:38:36;9.40;99.90
32217;DHT22;67098;51.140;4.088;2024-03-02T04:41:03;9.20;99.90
32217;DHT22;67098;51.140;4.088;2024-03-02T04:43:29;9.20;99.90
32217;DHT22;67098;51.140;4.088;2024-03-02T04:45:54;9.20;99.90
32217;DHT22;67098;51.140;4.088;2024-03-02T04:48:20;9.20;99.90
32217;DHT22;67098;51.140;4.088;2024-03-02T04:50:47;9.20;99.90
32217;DHT22;67098;51.140;4.088;2024-03-02T04:53:13;9.20;99.90
32217;DHT22;67098;51.140;4.088;2024-03-02T04:55:39;9.10;99.90
32217;DHT22;67098;51.140;4.088;2024-03-02T04:58:05;9.10;99.90
32217;DHT22;67098;51.140;4.088;2024-03-02T05:00:32;9.10;99.90
32217;DHT22;67098;51.140;4.088;2024-03-02T05:02:58;9.00;99.90
32217;DHT22;67098;51.140;4.088;2024-03-02T05:05:23;9.00;99.90
32217;DHT22;67098;51.140;4.088;2024-03-02T05:07:49;9.00;99.90
32217;DHT22;67098;51.140;4.088;2024-03-02T05:10:15;9.00;99.90
32217;DHT22;67098;51.140;4.088;2024-03-02T05:12:41;9.00;99.90
32217;DHT22;67098;51.140;4.088;2024-03-02T05:15:11;9.00;99.90
32217;DHT22;67098;51.140;4.088;2024-03-02T05:17:38;8.90;99.90
32217;DHT22;67098;51.140;4.088;2024-03-02T05:20:07;8.90;99.90
32217;DHT22;67098;51.140;4.088;2024-03-02T05:22:34;8.80;99.90
32217;DHT22;67098;51.140;4.088;2024-03-02T05:25:01;8.70;99.90
32217;DHT22;67098;51.140;4.088;2024-03-02T05:27:27;8.70;99.90
32217;DHT22;67098;51.140;4.088;2024-03-02T05:29:53;8.80;99.90
32217;DHT22;67098;51.140;4.088;2024-03-02T05:32:19;8.80;99.90
32217;DHT22;67098;51.140;4.088;2024-03-02T05:34:44;8.70;99.90
32217;DHT22;67098;51.140;4.088;2024-03-02T05:37:10;8.70;99.90
32217;DHT22;67098;51.140;4.088;2024-03-02T05:39:37;8.60;99.90
32217;DHT22;67098;51.140;4.088;2024-03-02T05:42:03;8.60;99.90
32217;DHT22;67098;51.140;4.088;2024-03-02T05:44:29;8.60;99.90
32217;DHT22;67098;51.140;4.088;2024-03-02T05:46:54;8.60;99.90
32217;DHT22;67098;51.140;4.088;2024-03-02T05:49:20;8.60;99.90
32217;DHT22;67098;51.140;4.088;2024-03-02T05:51:46;8.60;99.90
32217;DHT22;67098;51.140;4.088;2024-03-02T05:54:12;8.60;99.90
32217;DHT22;67098;51.140;4.088;2024-03-02T05:56:37;8.60;99.90
32217;DHT22;67098;51.140;4.088;2024-03-02T05:59:03;8.40;99.90
32217;DHT22;67098;51.140;4.088;2024-03-02T06:01:35;8.50;99.90
32217;DHT22;67098;51.140;4.088;2024-03-02T06:04:01;8.40;99.90
32217;DHT22;67098;51.140;4.088;2024-03-02T06:06:26;8.30;99.90
32217;DHT22;67098;51.140;4.088;2024-03-02T06:08:52;8.30;99.90
32217;DHT22;67098;51.140;4.088;2024-03-02T06:11:19;8.30;99.90
32217;DHT22;67098;51.140;4.088;2024-03-02T06:13:45;8.40;99.90
32217;DHT22;67098;51.140;4.088;2024-03-02T06:16:11;8.40;99.90
32217;DHT22;67098;51.140;4.088;2024-03-02T06:18:37;8.40;99.90
32217;DHT22;67098;51.140;4.088;2024-03-02T06:21:03;8.40;99.90
32217;DHT22;67098;51.140;4.088;2024-03-02T06:23:29;8.30;99.90
32217;DHT22;67098;51.140;4.088;2024-03-02T06:25:54;8.30;99.90
32217;DHT22;67098;51.140;4.088;2024-03-02T06:28:20;8.30;99.90
32217;DHT22;67098;51.140;4.088;2024-03-02T06:30:46;8.30;99.90
32217;DHT22;67098;51.140;4.088;2024-03-02T06:33:12;8.20;99.90
32217;DHT22;67098;51.140;4.088;2024-03-02T06:35:38;8.10;99.90
32217;DHT22;67098;51.140;4.088;2024-03-02T06:38:04;8.20;99.90
32217;DHT22;67098;51.140;4.088;2024-03-02T06:40:30;8.20;99.90
32217;DHT22;67098;51.140;4.088;2024-03-02T06:42:56;8.30;99.90
32217;DHT22;67098;51.140;4.088;2024-03-02T06:45:22;8.20;99.90
32217;DHT22;67098;51.140;4.088;2024-03-02T06:47:48;8.30;99.90
32217;DHT22;67098;51.140;4.088;2024-03-02T06:50:13;8.30;99.90
32217;DHT22;67098;51.140;4.088;2024-03-02T06:52:39;8.20;99.90
32217;DHT22;67098;51.140;4.088;2024-03-02T06:55:06;8.20;99.90
32217;DHT22;67098;51.140;4.088;2024-03-02T06:57:31;8.30;99.90
32217;DHT22;67098;51.140;4.088;2024-03-02T06:59:57;8.30;99.90
32217;DHT22;67098;51.140;4.088;2024-03-02T07:02:27;8.30;99.90
32217;DHT22;67098;51.140;4.088;2024-03-02T07:04:53;8.40;99.90
32217;DHT22;67098;51.140;4.088;2024-03-02T07:07:19;8.40;99.90
32217;DHT22;67098;51.140;4.088;2024-03-02T07:09:45;8.30;99.90
32217;DHT22;67098;51.140;4.088;2024-03-02T07:12:11;8.40;99.90
32217;DHT22;67098;51.140;4.088;2024-03-02T07:14:37;8.50;99.90
32217;DHT22;67098;51.140;4.088;2024-03-02T07:17:23;8.50;99.90
32217;DHT22;67098;51.140;4.088;2024-03-02T07:19:49;8.60;99.90
32217;DHT22;67098;51.140;4.088;2024-03-02T07:22:14;8.70;99.90
32217;DHT22;67098;51.140;4.088;2024-03-02T07:24:41;8.80;99.90
32217;DHT22;67098;51.140;4.088;2024-03-02T07:27:07;8.80;99.90
32217;DHT22;67098;51.140;4.088;2024-03-02T07:29:34;8.90;99.90
32217;DHT22;67098;51.140;4.088;2024-03-02T07:31:59;8.90;99.90
32217;DHT22;67098;51.140;4.088;2024-03-02T07:34:25;9.10;99.90
32217;DHT22;67098;51.140;4.088;2024-03-02T07:36:51;9.30;99.90
32217;DHT22;67098;51.140;4.088;2024-03-02T07:39:17;9.40;99.90
32217;DHT22;67098;51.140;4.088;2024-03-02T07:41:42;9.50;99.90
32217;DHT22;67098;51.140;4.088;2024-03-02T07:44:09;9.70;99.90
32217;DHT22;67098;51.140;4.088;2024-03-02T07:46:35;9.70;99.90
32217;DHT22;67098;51.140;4.088;2024-03-02T07:49:00;9.80;99.90
32217;DHT22;67098;51.140;4.088;2024-03-02T07:51:27;9.90;99.90
32217;DHT22;67098;51.140;4.088;2024-03-02T07:53:52;10.00;99.90
32217;DHT22;67098;51.140;4.088;2024-03-02T07:56:18;10.10;99.90
32217;DHT22;67098;51.140;4.088;2024-03-02T07:58:48;10.30;99.90
32217;DHT22;67098;51.140;4.088;2024-03-02T08:01:14;10.40;99.90
32217;DHT22;67098;51.140;4.088;2024-03-02T08:03:41;10.40;99.90
32217;DHT22;67098;51.140;4.088;2024-03-02T08:06:07;10.50;99.90
32217;DHT22;67098;51.140;4.088;2024-03-02T08:08:32;10.70;99.90
32217;DHT22;67098;51.140;4.088;2024-03-02T08:10:58;10.80;99.90
32217;DHT22;67098;51.140;4.088;2024-03-02T08:13:24;10.90;99.90
32217;DHT22;67098;51.140;4.088;2024-03-02T08:15:50;11.00;99.90
32217;DHT22;67098;51.140;4.088;2024-03-02T08:18:15;11.10;99.90
32217;DHT22;67098;51.140;4.088;2024-03-02T08:20:41;11.30;99.80
32217;DHT22;67098;51.140;4.088;2024-03-02T08:23:07;11.40;99.80
32217;DHT22;67098;51.140;4.088;2024-03-02T08:25:33;11.60;99.50
32217;DHT22;67098;51.140;4.088;2024-03-02T08:27:59;11.70;99.30
32217;DHT22;67098;51.140;4.088;2024-03-02T08:30:25;11.80;99.00
32217;DHT22;67098;51.140;4.088;2024-03-02T08:32:51;12.00;98.60
32217;DHT22;67098;51.140;4.088;2024-03-02T08:35:16;12.00;98.60
32217;DHT22;67098;51.140;4.088;2024-03-02T08:37:42;12.10;98.30
32217;DHT22;67098;51.140;4.088;2024-03-02T08:40:09;12.20;98.20
32217;DHT22;67098;51.140;4.088;2024-03-02T08:42:36;12.20;98.20
32217;DHT22;67098;51.140;4.088;2024-03-02T08:45:02;12.30;98.10
32217;DHT22;67098;51.140;4.088;2024-03-02T08:47:27;12.40;98.10
32217;DHT22;67098;51.140;4.088;2024-03-02T08:49:53;12.40;97.70
32217;DHT22;67098;51.140;4.088;2024-03-02T08:52:19;12.50;97.40
32217;DHT22;67098;51.140;4.088;2024-03-02T08:54:45;12.20;97.70
32217;DHT22;67098;51.140;4.088;2024-03-02T08:57:10;12.20;97.60
32217;DHT22;67098;51.140;4.088;2024-03-02T08:59:36;12.10;97.70
32217;DHT22;67098;51.140;4.088;2024-03-02T09:02:02;12.00;97.80
32217;DHT22;67098;51.140;4.088;2024-03-02T09:04:29;11.90;98.00
32217;DHT22;67098;51.140;4.088;2024-03-02T09:06:54;11.80;98.20
32217;DHT22;67098;51.140;4.088;2024-03-02T09:09:20;11.80;98.40
32217;DHT22;67098;51.140;4.088;2024-03-02T09:11:47;11.80;98.50
32217;DHT22;67098;51.140;4.088;2024-03-02T09:14:12;11.70;98.70
32217;DHT22;67098;51.140;4.088;2024-03-02T09:16:40;11.70;98.70
32217;DHT22;67098;51.140;4.088;2024-03-02T09:19:06;11.70;98.30
32217;DHT22;67098;51.140;4.088;2024-03-02T09:21:32;11.80;98.50
32217;DHT22;67098;51.140;4.088;2024-03-02T09:23:58;11.80;98.60
32217;DHT22;67098;51.140;4.088;2024-03-02T09:26:24;11.90;98.40
32217;DHT22;67098;51.140;4.088;2024-03-02T09:28:50;12.00;98.40
32217;DHT22;67098;51.140;4.088;2024-03-02T09:31:16;11.90;98.30
32217;DHT22;67098;51.140;4.088;2024-03-02T09:33:42;12.00;98.40
32217;DHT22;67098;51.140;4.088;2024-03-02T09:36:21;12.10;98.40
32217;DHT22;67098;51.140;4.088;2024-03-02T09:38:47;12.20;98.10
32217;DHT22;67098;51.140;4.088;2024-03-02T09:41:14;12.30;97.90
32217;DHT22;67098;51.140;4.088;2024-03-02T09:43:41;12.40;98.10
32217;DHT22;67098;51.140;4.088;2024-03-02T09:46:10;12.50;97.50
32217;DHT22;67098;51.140;4.088;2024-03-02T09:48:36;12.50;97.70
32217;DHT22;67098;51.140;4.088;2024-03-02T09:51:02;12.60;97.60
32217;DHT22;67098;51.140;4.088;2024-03-02T09:53:33;12.70;97.20
32217;DHT22;67098;51.140;4.088;2024-03-02T09:56:00;12.70;97.00
32217;DHT22;67098;51.140;4.088;2024-03-02T09:58:26;12.70;97.00
32217;DHT22;67098;51.140;4.088;2024-03-02T10:00:52;12.80;97.10
32217;DHT22;67098;51.140;4.088;2024-03-02T10:03:18;12.90;97.10
32217;DHT22;67098;51.140;4.088;2024-03-02T10:05:44;13.00;96.60
32217;DHT22;67098;51.140;4.088;2024-03-02T10:08:10;13.10;96.30
32217;DHT22;67098;51.140;4.088;2024-03-02T10:10:37;13.00;96.60
32217;DHT22;67098;51.140;4.088;2024-03-02T10:13:12;13.00;96.40
32217;DHT22;67098;51.140;4.088;2024-03-02T10:15:39;13.10;96.10
32217;DHT22;67098;51.140;4.088;2024-03-02T10:18:09;13.20;96.30
32217;DHT22;67098;51.140;4.088;2024-03-02T10:20:36;13.40;96.00
32217;DHT22;67098;51.140;4.088;2024-03-02T10:23:15;13.50;95.60
32217;DHT22;67098;51.140;4.088;2024-03-02T10:25:43;13.70;95.10
32217;DHT22;67098;51.140;4.088;2024-03-02T10:28:09;13.70;95.20
32217;DHT22;67098;51.140;4.088;2024-03-02T10:30:35;13.90;95.10
32217;DHT22;67098;51.140;4.088;2024-03-02T10:33:01;14.00;95.20
32217;DHT22;67098;51.140;4.088;2024-03-02T10:35:28;14.20;95.00
32217;DHT22;67098;51.140;4.088;2024-03-02T10:37:54;14.40;94.70
32217;DHT22;67098;51.140;4.088;2024-03-02T10:40:23;14.50;94.20
32217;DHT22;67098;51.140;4.088;2024-03-02T10:42:52;14.70;94.20
32217;DHT22;67098;51.140;4.088;2024-03-02T10:45:20;14.80;94.00
32217;DHT22;67098;51.140;4.088;2024-03-02T10:47:48;14.90;94.00
32217;DHT22;67098;51.140;4.088;2024-03-02T10:50:15;15.00;93.80
32217;DHT22;67098;51.140;4.088;2024-03-02T10:52:40;15.30;93.40
32217;DHT22;67098;51.140;4.088;2024-03-02T10:55:07;15.40;93.30
32217;DHT22;67098;51.140;4.088;2024-03-02T10:57:51;15.50;93.60
32217;DHT22;67098;51.140;4.088;2024-03-02T11:00:19;15.70;92.90
32217;DHT22;67098;51.140;4.088;2024-03-02T11:02:52;15.90;92.40
32217;DHT22;67098;51.140;4.088;2024-03-02T11:05:34;16.00;92.20
32217;DHT22;67098;51.140;4.088;2024-03-02T11:08:06;16.00;92.10
32217;DHT22;67098;51.140;4.088;2024-03-02T11:10:40;16.00;92.20
32217;DHT22;67098;51.140;4.088;2024-03-02T11:13:11;16.10;91.70
32217;DHT22;67098;51.140;4.088;2024-03-02T11:15:40;16.20;91.70
32217;DHT22;67098;51.140;4.088;2024-03-02T11:18:06;16.40;91.40
32217;DHT22;67098;51.140;4.088;2024-03-02T11:20:38;16.50;91.30
32217;DHT22;67098;51.140;4.088;2024-03-02T11:23:09;16.30;91.00
32217;DHT22;67098;51.140;4.088;2024-03-02T11:25:35;16.50;91.10
32217;DHT22;67098;51.140;4.088;2024-03-02T11:28:05;16.80;90.80
32217;DHT22;67098;51.140;4.088;2024-03-02T11:33:06;16.90;90.40
32217;DHT22;67098;51.140;4.088;2024-03-02T11:35:41;17.00;89.70
32217;DHT22;67098;51.140;4.088;2024-03-02T11:38:09;16.80;89.20
32217;DHT22;67098;51.140;4.088;2024-03-02T11:40:35;16.80;88.80
32217;DHT22;67098;51.140;4.088;2024-03-02T11:43:01;16.80;89.00
32217;DHT22;67098;51.140;4.088;2024-03-02T11:45:28;16.80;88.60
32217;DHT22;67098;51.140;4.088;2024-03-02T11:47:56;16.70;88.30
32217;DHT22;67098;51.140;4.088;2024-03-02T11:50:36;16.40;89.30
32217;DHT22;67098;51.140;4.088;2024-03-02T11:53:06;16.40;89.00
32217;DHT22;67098;51.140;4.088;2024-03-02T11:55:36;16.40;88.80
32217;DHT22;67098;51.140;4.088;2024-03-02T11:58:03;16.20;88.50
32217;DHT22;67098;51.140;4.088;2024-03-02T12:00:29;16.10;88.30
32217;DHT22;67098;51.140;4.088;2024-03-02T12:03:06;15.90;89.10
32217;DHT22;67098;51.140;4.088;2024-03-02T12:05:32;15.90;88.90
32217;DHT22;67098;51.140;4.088;2024-03-02T12:07:59;15.80;89.60
32217;DHT22;67098;51.140;4.088;2024-03-02T12:10:26;15.80;89.80
32217;DHT22;67098;51.140;4.088;2024-03-02T12:12:59;15.70;90.20
32217;DHT22;67098;51.140;4.088;2024-03-02T12:15:27;15.50;90.00
32217;DHT22;67098;51.140;4.088;2024-03-02T12:17:57;15.50;90.30
32217;DHT22;67098;51.140;4.088;2024-03-02T12:20:24;15.40;90.20
32217;DHT22;67098;51.140;4.088;2024-03-02T12:22:54;15.50;90.50
32217;DHT22;67098;51.140;4.088;2024-03-02T12:25:21;15.50;90.40
32217;DHT22;67098;51.140;4.088;2024-03-02T12:27:50;15.50;90.50
32217;DHT22;67098;51.140;4.088;2024-03-02T12:30:19;15.60;90.90
32217;DHT22;67098;51.140;4.088;2024-03-02T12:32:45;15.40;91.20
32217;DHT22;67098;51.140;4.088;2024-03-02T12:35:12;15.30;91.20
32217;DHT22;67098;51.140;4.088;2024-03-02T12:37:47;15.40;91.20
32217;DHT22;67098;51.140;4.088;2024-03-02T12:40:15;15.40;91.30
32217;DHT22;67098;51.140;4.088;2024-03-02T12:42:43;15.40;91.80
32217;DHT22;67098;51.140;4.088;2024-03-02T12:45:09;15.10;92.40
32217;DHT22;67098;51.140;4.088;2024-03-02T12:47:36;15.20;92.40
32217;DHT22;67098;51.140;4.088;2024-03-02T12:50:03;15.30;93.10
32217;DHT22;67098;51.140;4.088;2024-03-02T12:52:29;15.40;93.30
32217;DHT22;67098;51.140;4.088;2024-03-02T12:54:56;15.40;94.00
32217;DHT22;67098;51.140;4.088;2024-03-02T12:57:28;15.40;94.90
32217;DHT22;67098;51.140;4.088;2024-03-02T13:00:14;15.60;94.70
32217;DHT22;67098;51.140;4.088;2024-03-02T13:02:41;15.80;93.80
32217;DHT22;67098;51.140;4.088;2024-03-02T13:05:08;15.80;92.80
32217;DHT22;67098;51.140;4.088;2024-03-02T13:07:42;15.80;92.70
32217;DHT22;67098;51.140;4.088;2024-03-02T13:10:08;15.80;92.80
32217;DHT22;67098;51.140;4.088;2024-03-02T13:12:35;15.80;92.80
32217;DHT22;67098;51.140;4.088;2024-03-02T13:15:02;15.70;92.10
32217;DHT22;67098;51.140;4.088;2024-03-02T13:17:29;15.60;92.40
32217;DHT22;67098;51.140;4.088;2024-03-02T13:19:56;15.40;92.10
32217;DHT22;67098;51.140;4.088;2024-03-02T13:22:23;15.30;92.30
32217;DHT22;67098;51.140;4.088;2024-03-02T13:24:50;15.30;92.70
32217;DHT22;67098;51.140;4.088;2024-03-02T13:27:16;15.20;93.00
32217;DHT22;67098;51.140;4.088;2024-03-02T13:29:48;15.40;92.40
32217;DHT22;67098;51.140;4.088;2024-03-02T13:32:14;15.40;92.30
32217;DHT22;67098;51.140;4.088;2024-03-02T13:34:40;15.40;91.90
32217;DHT22;67098;51.140;4.088;2024-03-02T13:37:07;15.30;92.20
32217;DHT22;67098;51.140;4.088;2024-03-02T13:39:33;15.30;92.20
32217;DHT22;67098;51.140;4.088;2024-03-02T13:42:09;15.30;91.70
32217;DHT22;67098;51.140;4.088;2024-03-02T13:44:35;15.30;91.40
32217;DHT22;67098;51.140;4.088;2024-03-02T13:47:02;15.30;91.60
32217;DHT22;67098;51.140;4.088;2024-03-02T13:49:28;15.20;92.00
32217;DHT22;67098;51.140;4.088;2024-03-02T13:52:00;15.10;91.80
32217;DHT22;67098;51.140;4.088;2024-03-02T13:54:28;15.00;91.80
32217;DHT22;67098;51.140;4.088;2024-03-02T13:56:54;15.00;91.90
32217;DHT22;67098;51.140;4.088;2024-03-02T13:59:20;15.00;91.70
32217;DHT22;67098;51.140;4.088;2024-03-02T14:01:47;15.10;91.50
32217;DHT22;67098;51.140;4.088;2024-03-02T14:04:13;14.90;92.20
32217;DHT22;67098;51.140;4.088;2024-03-02T14:06:38;14.90;92.00
32217;DHT22;67098;51.140;4.088;2024-03-02T14:09:04;15.00;92.10
32217;DHT22;67098;51.140;4.088;2024-03-02T14:11:30;14.80;92.60
32217;DHT22;67098;51.140;4.088;2024-03-02T14:13:56;14.90;92.80
32217;DHT22;67098;51.140;4.088;2024-03-02T14:16:22;15.00;92.90
32217;DHT22;67098;51.140;4.088;2024-03-02T14:18:48;15.10;92.80
32217;DHT22;67098;51.140;4.088;2024-03-02T14:21:15;15.30;92.60
32217;DHT22;67098;51.140;4.088;2024-03-02T14:23:41;15.30;93.00
32217;DHT22;67098;51.140;4.088;2024-03-02T14:26:07;15.30;93.00
32217;DHT22;67098;51.140;4.088;2024-03-02T14:28:33;15.30;92.40
32217;DHT22;67098;51.140;4.088;2024-03-02T14:30:59;15.30;92.40
32217;DHT22;67098;51.140;4.088;2024-03-02T14:33:27;15.30;92.70
32217;DHT22;67098;51.140;4.088;2024-03-02T14:35:53;15.20;93.20
32217;DHT22;67098;51.140;4.088;2024-03-02T14:38:19;15.20;93.40
32217;DHT22;67098;51.140;4.088;2024-03-02T14:40:45;15.40;92.80
32217;DHT22;67098;51.140;4.088;2024-03-02T14:43:11;15.50;92.60
32217;DHT22;67098;51.140;4.088;2024-03-02T14:45:36;15.50;92.70
32217;DHT22;67098;51.140;4.088;2024-03-02T14:48:03;15.50;92.60
32217;DHT22;67098;51.140;4.088;2024-03-02T14:50:29;15.40;92.70
32217;DHT22;67098;51.140;4.088;2024-03-02T14:52:55;15.50;92.70
32217;DHT22;67098;51.140;4.088;2024-03-02T14:55:24;15.40;92.80
32217;DHT22;67098;51.140;4.088;2024-03-02T14:57:49;15.30;93.10
32217;DHT22;67098;51.140;4.088;2024-03-02T15:00:15;15.40;92.70
32217;DHT22;67098;51.140;4.088;2024-03-02T15:02:41;15.40;92.50
32217;DHT22;67098;51.140;4.088;2024-03-02T15:05:07;15.40;92.50
32217;DHT22;67098;51.140;4.088;2024-03-02T15:07:33;15.20;92.50
32217;DHT22;67098;51.140;4.088;2024-03-02T15:09:59;15.20;92.60
32217;DHT22;67098;51.140;4.088;2024-03-02T15:12:25;15.30;92.50
32217;DHT22;67098;51.140;4.088;2024-03-02T15:14:51;15.30;92.80
32217;DHT22;67098;51.140;4.088;2024-03-02T15:17:16;15.40;92.90
32217;DHT22;67098;51.140;4.088;2024-03-02T15:19:43;15.40;93.10
32217;DHT22;67098;51.140;4.088;2024-03-02T15:22:09;15.40;93.30
32217;DHT22;67098;51.140;4.088;2024-03-02T15:24:35;15.30;92.90
32217;DHT22;67098;51.140;4.088;2024-03-02T15:27:02;15.20;93.40
32217;DHT22;67098;51.140;4.088;2024-03-02T15:29:31;15.00;93.90
32217;DHT22;67098;51.140;4.088;2024-03-02T15:31:58;15.00;94.00
32217;DHT22;67098;51.140;4.088;2024-03-02T15:34:24;14.80;94.50
32217;DHT22;67098;51.140;4.088;2024-03-02T15:36:50;14.90;94.50
32217;DHT22;67098;51.140;4.088;2024-03-02T15:39:16;14.90;94.30
32217;DHT22;67098;51.140;4.088;2024-03-02T15:41:44;14.90;94.50